Terminal Aerodrome Forecast
Issued by NWS St Louis, MO

Home | Current Version | Previous Version | Text Only | Print | Product List | Glossary On
Versions: 1 2 3 4 5 6 7 8 9 10 11 12 13 14 15 16 17 18 19
000
FTUS43 KLSX 061100
TAFCOU
TAF
KCOU 061122Z 0612/0712 14011KT P6SM BKN250
     FM061500 16013G23KT P6SM SCT060 BKN100
     FM061800 17014G24KT P6SM -SHRA VCTS BKN050CB
     FM070100 16010KT P6SM SCT080 BKN120=

USA.gov is the U.S. government's official web portal to all federal, state and local government web resources and services.